createdAt,value
2022-07-30T00:00:02.367Z,19.9
2022-07-30T00:03:09.759Z,19.9
2022-07-30T00:04:15.355Z,19.9
2022-07-30T00:05:34.776Z,19.9
2022-07-30T00:07:10.684Z,19.8
2022-07-30T00:08:15.507Z,19.8
2022-07-30T00:10:18.423Z,19.8
2022-07-30T00:13:05.801Z,19.8
2022-07-30T00:14:35.864Z,19.8
2022-07-30T00:17:49.223Z,19.7
2022-07-30T00:21:38.913Z,19.6
2022-07-30T00:22:43.443Z,19.7
2022-07-30T00:24:25.128Z,19.6
2022-07-30T00:26:56.550Z,19.6
2022-07-30T00:28:13.133Z,19.6
2022-07-30T00:29:22.997Z,19.6
2022-07-30T00:31:11.056Z,19.6
2022-07-30T00:32:15.885Z,19.5
2022-07-30T00:33:41.764Z,19.6
2022-07-30T00:34:57.626Z,19.5
2022-07-30T00:37:17.651Z,19.6
2022-07-30T00:38:47.088Z,19.5
2022-07-30T00:40:48.849Z,19.5
2022-07-30T00:41:58.008Z,19.5
2022-07-30T00:43:18.120Z,19.6
2022-07-30T00:44:28.456Z,19.5
2022-07-30T00:46:31.711Z,19.5
2022-07-30T00:48:43.514Z,19.6
2022-07-30T00:49:48.026Z,19.6
2022-07-30T00:50:57.321Z,19.6
2022-07-30T00:52:09.555Z,19.6
2022-07-30T00:53:37.713Z,19.6
2022-07-30T00:54:57.724Z,19.5
2022-07-30T00:56:35.330Z,19.5
2022-07-30T00:57:54.816Z,19.5
2022-07-30T00:59:03.320Z,19.5
2022-07-30T01:00:27.350Z,19.5
2022-07-30T01:01:55.688Z,19.6
2022-07-30T01:03:09.371Z,19.6
2022-07-30T01:04:14.402Z,19.6
2022-07-30T01:05:19.699Z,19.6
2022-07-30T01:07:16.533Z,19.6
2022-07-30T01:08:45.359Z,19.6
2022-07-30T01:14:00.033Z,19.5
2022-07-30T01:18:48.726Z,19.5
2022-07-30T01:23:26.304Z,19.5
2022-07-30T01:25:17.905Z,19.5
2022-07-30T01:28:20.339Z,19.5
2022-07-30T01:31:20.289Z,19.5
2022-07-30T01:32:52.579Z,19.6
2022-07-30T01:34:18.303Z,19.6
2022-07-30T01:36:40.373Z,19.6
2022-07-30T01:40:17.019Z,19.6
2022-07-30T01:44:43.359Z,19.7
2022-07-30T01:45:53.272Z,19.7
2022-07-30T01:47:40.444Z,19.7
2022-07-30T01:48:45.147Z,19.7
2022-07-30T01:50:23.088Z,19.7
2022-07-30T01:51:33.504Z,19.6
2022-07-30T01:52:34.423Z,19.6
2022-07-30T01:53:45.423Z,19.6
2022-07-30T01:56:48.320Z,19.5
2022-07-30T01:58:51.134Z,19.6
2022-07-30T01:59:57.983Z,19.5
2022-07-30T02:01:31.035Z,19.5
2022-07-30T02:03:06.079Z,19.5
2022-07-30T02:04:25.658Z,19.6
2022-07-30T02:05:39.610Z,19.6
2022-07-30T02:06:51.819Z,19.5
2022-07-30T02:08:03.002Z,19.5
2022-07-30T02:09:57.964Z,19.5
2022-07-30T02:11:08.465Z,19.5
2022-07-30T02:12:30.214Z,19.5
2022-07-30T02:14:06.787Z,19.5
2022-07-30T02:15:33.383Z,19.5
2022-07-30T02:17:08.470Z,19.5
2022-07-30T02:18:13.868Z,19.5
2022-07-30T02:19:32.769Z,19.5
2022-07-30T02:20:35.594Z,19.5
2022-07-30T02:21:39.416Z,19.5
2022-07-30T02:23:04.723Z,19.5
2022-07-30T02:24:10.452Z,19.5
2022-07-30T02:25:41.831Z,19.5
2022-07-30T02:27:08.454Z,19.5
2022-07-30T02:28:22.654Z,19.5
2022-07-30T02:29:28.043Z,19.5
2022-07-30T02:30:33.163Z,19.5
2022-07-30T02:31:49.419Z,19.5
2022-07-30T02:33:52.707Z,19.6
2022-07-30T02:34:57.928Z,19.5
2022-07-30T02:38:09.738Z,19.5
2022-07-30T02:39:46.673Z,19.5
2022-07-30T02:40:55.591Z,19.5
2022-07-30T02:42:31.179Z,19.5
2022-07-30T02:43:36.217Z,19.5
2022-07-30T02:45:55.423Z,19.5
2022-07-30T02:48:12.027Z,19.5
2022-07-30T02:49:58.663Z,19.4
2022-07-30T02:51:05.502Z,19.4
2022-07-30T02:52:58.986Z,19.4
2022-07-30T02:54:24.966Z,19.4
2022-07-30T02:55:30.468Z,19.4
2022-07-30T02:56:59.913Z,19.5
2022-07-30T02:58:25.751Z,19.5
2022-07-30T02:59:31.851Z,19.5
2022-07-30T03:01:22.697Z,19.5
2022-07-30T03:02:51.502Z,19.5
2022-07-30T03:04:03.222Z,19.5
2022-07-30T03:05:42.780Z,19.5
2022-07-30T03:07:07.671Z,19.5
2022-07-30T03:08:12.655Z,19.5
2022-07-30T03:09:17.368Z,19.5
2022-07-30T03:10:30.259Z,19.5
2022-07-30T03:11:41.854Z,19.5
2022-07-30T03:12:57.119Z,19.5
2022-07-30T03:14:02.522Z,19.5
2022-07-30T03:16:50.022Z,19.5
2022-07-30T03:21:06.114Z,19.5
2022-07-30T03:22:16.419Z,19.5
2022-07-30T03:23:44.199Z,19.5
2022-07-30T03:24:51.328Z,19.5
2022-07-30T03:26:13.323Z,19.5
2022-07-30T03:27:19.450Z,19.5
2022-07-30T03:29:21.994Z,19.5
2022-07-30T03:30:27.273Z,19.5
2022-07-30T03:32:40.516Z,19.4
2022-07-30T03:33:48.187Z,19.4
2022-07-30T03:35:38.750Z,19.4
2022-07-30T03:36:52.930Z,19.4
2022-07-30T03:38:06.150Z,19.5
2022-07-30T03:39:18.506Z,19.5
2022-07-30T03:41:22.023Z,19.5
2022-07-30T03:42:39.091Z,19.5
2022-07-30T03:44:07.959Z,19.4
2022-07-30T03:45:36.300Z,19.4
2022-07-30T03:47:21.567Z,19.4
2022-07-30T03:48:52.899Z,19.4
2022-07-30T03:50:27.554Z,19.5
2022-07-30T03:51:33.811Z,19.5
2022-07-30T03:54:26.874Z,19.5
2022-07-30T03:55:37.711Z,19.5
2022-07-30T03:57:32.075Z,19.5
2022-07-30T03:58:37.010Z,19.5
2022-07-30T03:59:57.572Z,19.5
2022-07-30T04:01:38.222Z,19.5
2022-07-30T04:02:59.387Z,19.6
2022-07-30T04:04:05.026Z,19.6
2022-07-30T04:05:17.943Z,19.5
2022-07-30T04:06:39.111Z,19.6
2022-07-30T04:08:01.278Z,19.6
2022-07-30T04:09:09.378Z,19.6
2022-07-30T04:10:34.046Z,19.6
2022-07-30T04:11:44.146Z,19.7
2022-07-30T04:13:09.685Z,19.7
2022-07-30T04:14:12.990Z,19.7
2022-07-30T04:16:05.353Z,19.7
2022-07-30T04:16:38.667Z,19.7
2022-07-30T04:18:16.170Z,19.7
2022-07-30T04:19:29.765Z,19.7
2022-07-30T04:20:39.129Z,19.6
2022-07-30T04:22:13.049Z,19.6
2022-07-30T04:24:02.457Z,19.6
2022-07-30T04:25:57.237Z,19.6
2022-07-30T04:27:30.917Z,19.6
2022-07-30T04:28:36.977Z,19.6
2022-07-30T04:29:45.101Z,19.6
2022-07-30T04:30:55.003Z,19.6
2022-07-30T04:34:11.422Z,19.8
2022-07-30T04:39:22.394Z,19.8
2022-07-30T04:40:28.621Z,19.8
2022-07-30T04:42:23.889Z,19.7
2022-07-30T04:43:44.245Z,19.8
2022-07-30T04:44:50.745Z,19.8
2022-07-30T04:46:23.246Z,19.7
2022-07-30T04:49:06.031Z,19.7
2022-07-30T04:50:11.597Z,19.7
2022-07-30T04:53:55.615Z,19.8
2022-07-30T04:55:24.086Z,19.8
2022-07-30T04:58:21.224Z,19.8
2022-07-30T04:59:27.066Z,19.8
2022-07-30T05:00:32.586Z,19.9
2022-07-30T05:02:27.213Z,19.9
2022-07-30T05:05:19.507Z,19.9
2022-07-30T05:06:29.221Z,19.9
2022-07-30T05:07:34.054Z,19.9
2022-07-30T05:09:50.265Z,20
2022-07-30T05:16:35.624Z,20
2022-07-30T05:18:39.421Z,20
2022-07-30T05:22:06.203Z,20.1
2022-07-30T05:28:56.862Z,20.1
2022-07-30T05:30:01.726Z,20.1
2022-07-30T05:31:34.687Z,20.2
2022-07-30T05:32:44.553Z,20.2
2022-07-30T05:34:01.331Z,20.2
2022-07-30T05:38:11.616Z,20.3
2022-07-30T05:43:21.813Z,20.3
2022-07-30T05:52:51.005Z,20.4
2022-07-30T05:54:23.817Z,20.4
2022-07-30T05:55:28.537Z,20.4
2022-07-30T06:02:07.758Z,20.6
2022-07-30T06:04:04.869Z,20.5
2022-07-30T06:05:57.653Z,20.6
2022-07-30T06:08:18.498Z,20.6
2022-07-30T06:12:17.156Z,20.6
2022-07-30T06:14:21.806Z,20.7
2022-07-30T06:18:09.309Z,20.7
2022-07-30T06:22:01.855Z,20.8
2022-07-30T06:23:30.885Z,20.8
2022-07-30T06:27:39.660Z,20.8
2022-07-30T06:41:22.033Z,21
2022-07-30T06:43:42.109Z,21
2022-07-30T06:46:04.206Z,21
2022-07-30T06:49:32.290Z,21.1
2022-07-30T06:53:18.270Z,21.1
2022-07-30T06:54:23.385Z,21.1
2022-07-30T06:55:28.533Z,21.1
2022-07-30T06:56:38.694Z,21.1
2022-07-30T06:59:57.667Z,21.2
2022-07-30T07:01:17.435Z,21.2
2022-07-30T07:03:39.439Z,21.2
2022-07-30T07:09:22.766Z,21.3
2022-07-30T07:11:15.929Z,21.2
2022-07-30T07:21:45.545Z,21.4
2022-07-30T10:47:50.040Z,24
2022-07-30T18:17:30.619Z,18
2022-07-30T18:18:38.076Z,18
2022-07-30T18:19:45.106Z,18
2022-07-30T18:24:14.986Z,18
2022-07-30T18:25:54.274Z,18
2022-07-30T18:31:46.286Z,18
2022-07-30T18:33:31.562Z,18
2022-07-30T18:38:02.422Z,18
2022-07-30T19:11:41.842Z,18
2022-07-30T19:16:51.817Z,18
2022-07-30T19:59:45.706Z,17.9
2022-07-30T22:38:40.664Z,17.8
2022-07-30T22:39:52.419Z,17.8
2022-07-30T22:40:58.229Z,17.8
2022-07-30T22:42:12.493Z,17.8
2022-07-30T22:43:41.684Z,17.8
2022-07-30T22:45:46.594Z,17.6
2022-07-30T22:47:50.205Z,17.7
2022-07-30T22:48:29.713Z,17.7
2022-07-30T22:50:51.884Z,17.6
2022-07-30T22:52:04.886Z,17.6
2022-07-30T22:54:10.136Z,17.6
2022-07-30T22:55:34.028Z,17.6
2022-07-30T22:57:23.082Z,17.6
2022-07-30T22:58:31.229Z,17.6
2022-07-30T23:06:52.548Z,17.6
2022-07-30T23:12:25.873Z,17.6
2022-07-30T23:13:32.191Z,17.5
2022-07-30T23:14:36.635Z,17.6
2022-07-30T23:19:47.255Z,17.5
2022-07-30T23:21:42.868Z,17.6
2022-07-30T23:24:07.555Z,17.5
2022-07-30T23:27:58.416Z,17.6
2022-07-30T23:29:02.999Z,17.6
2022-07-30T23:30:29.941Z,17.6
2022-07-30T23:32:06.503Z,17.6
2022-07-30T23:34:39.115Z,17.6
2022-07-30T23:35:43.990Z,17.6
2022-07-30T23:39:25.235Z,17.6
2022-07-30T23:41:11.628Z,17.6
2022-07-30T23:42:51.930Z,17.5
2022-07-30T23:44:55.952Z,17.6
2022-07-30T23:46:00.803Z,17.6
2022-07-30T23:48:36.591Z,17.6
2022-07-30T23:52:10.535Z,17.6
2022-07-30T23:53:35.923Z,17.6
2022-07-30T23:54:40.297Z,17.6
2022-07-30T23:56:03.151Z,17.6
2022-07-30T23:57:07.746Z,17.6
2022-07-30T23:58:49.164Z,17.5
2022-07-30T23:59:53.886Z,17.5
